Terminal Aerodrome Forecast
Issued by NWS

Home | Current Version | Previous Version | Text Only | Print | Product List | Glossary On
Versions: 1 2 3 4 5 6 7 8 9 10 11 12 13 14 15 16 17 18 19 20 21 22 23 24 25
920
FTUS46 KLOX 292343
TAFSBP
TAF
KSBP 292343Z 3000/3024 30010KT P6SM SKC
     FM300400 31006KT P6SM SKC
     FM300700 VRB03KT P6SM BKN005
     FM301000 00000KT 1 1/2SM BR OVC002
     FM301500 VRB03KT 5SM BR OVC005
     FM301600 25008KT P6SM SKC=

USA.gov is the U.S. government's official web portal to all federal, state and local government web resources and services.